Aviation Digital Data Service (ADDS)

Output produced by METARs form (1248 UTC 16 September 2019)
found at http://www.aviationweather.gov/metar/data/
 
METAR text: KGTU 161156Z 00000KT 10SM BKN065 23/19 A3005 RMK AO2 SLP167 T02330189 10272 20233 55001
Conditions at: KGTU (GEORGETOWN , TX, US) observed 1156 UTC 16 September 2019
Temperature: 23.3°C (74°F)
Dewpoint: 18.9°C (66°F) [RH = 76%]
Pressure (altimeter): 30.05 inches Hg (1017.7 mb)
[Sea-level pressure: 1016.7 mb]
Winds: calm
Visibility: 10 or more miles (16+ km)
Ceiling: 6500 feet AGL
Clouds: broken clouds at 6500 feet AGL
Weather: no significant weather observed at this time